sensor_id;sensor_type;location;lat;lon;timestamp;P1;durP1;ratioP1;P2;durP2;ratioP2
52768;SDS011;40471;44.534;18.644;2023-11-19T00:01:04;153.75;;;88.68;;
52768;SDS011;40471;44.534;18.644;2023-11-19T00:05:58;136.17;;;81.17;;
52768;SDS011;40471;44.534;18.644;2023-11-19T00:08:24;102.30;;;68.60;;
52768;SDS011;40471;44.534;18.644;2023-11-19T00:10:50;133.60;;;73.63;;
52768;SDS011;40471;44.534;18.644;2023-11-19T00:13:16;99.93;;;63.53;;
52768;SDS011;40471;44.534;18.644;2023-11-19T00:15:42;96.25;;;55.88;;
52768;SDS011;40471;44.534;18.644;2023-11-19T00:18:07;79.18;;;55.67;;
52768;SDS011;40471;44.534;18.644;2023-11-19T00:37:24;93.55;;;55.80;;
52768;SDS011;40471;44.534;18.644;2023-11-19T00:39:50;143.32;;;86.70;;
52768;SDS011;40471;44.534;18.644;2023-11-19T00:42:17;134.13;;;86.38;;
52768;SDS011;40471;44.534;18.644;2023-11-19T00:44:43;105.05;;;72.68;;
52768;SDS011;40471;44.534;18.644;2023-11-19T00:47:09;113.23;;;71.20;;
52768;SDS011;40471;44.534;18.644;2023-11-19T00:49:34;103.78;;;55.65;;
52768;SDS011;40471;44.534;18.644;2023-11-19T00:52:00;99.22;;;62.45;;
52768;SDS011;40471;44.534;18.644;2023-11-19T00:54:27;143.23;;;80.78;;
52768;SDS011;40471;44.534;18.644;2023-11-19T00:56:53;117.63;;;70.43;;
52768;SDS011;40471;44.534;18.644;2023-11-19T01:16:09;120.72;;;66.65;;
52768;SDS011;40471;44.534;18.644;2023-11-19T01:18:35;110.00;;;66.53;;
52768;SDS011;40471;44.534;18.644;2023-11-19T01:21:01;74.78;;;50.95;;
52768;SDS011;40471;44.534;18.644;2023-11-19T01:23:26;106.20;;;59.80;;
52768;SDS011;40471;44.534;18.644;2023-11-19T01:25:52;98.65;;;61.40;;
52768;SDS011;40471;44.534;18.644;2023-11-19T01:28:18;88.30;;;61.88;;
52768;SDS011;40471;44.534;18.644;2023-11-19T01:30:44;114.10;;;66.28;;
52768;SDS011;40471;44.534;18.644;2023-11-19T01:33:09;95.80;;;56.63;;
52768;SDS011;40471;44.534;18.644;2023-11-19T01:52:26;128.02;;;82.70;;
52768;SDS011;40471;44.534;18.644;2023-11-19T01:54:52;62.58;;;40.05;;
52768;SDS011;40471;44.534;18.644;2023-11-19T01:57:21;56.55;;;38.65;;
52768;SDS011;40471;44.534;18.644;2023-11-19T01:59:49;100.57;;;49.78;;
52768;SDS011;40471;44.534;18.644;2023-11-19T02:02:16;69.32;;;41.83;;
52768;SDS011;40471;44.534;18.644;2023-11-19T02:04:46;62.25;;;43.55;;
52768;SDS011;40471;44.534;18.644;2023-11-19T02:07:13;63.40;;;36.00;;
52768;SDS011;40471;44.534;18.644;2023-11-19T02:09:42;65.30;;;28.88;;
52768;SDS011;40471;44.534;18.644;2023-11-19T02:12:08;53.67;;;26.65;;
52768;SDS011;40471;44.534;18.644;2023-11-19T02:31:26;46.05;;;22.77;;
52768;SDS011;40471;44.534;18.644;2023-11-19T02:33:52;46.67;;;24.60;;
52768;SDS011;40471;44.534;18.644;2023-11-19T02:36:18;60.72;;;25.20;;
52768;SDS011;40471;44.534;18.644;2023-11-19T02:38:44;35.92;;;21.63;;
52768;SDS011;40471;44.534;18.644;2023-11-19T02:41:10;44.07;;;26.07;;
52768;SDS011;40471;44.534;18.644;2023-11-19T02:43:36;42.28;;;25.55;;
52768;SDS011;40471;44.534;18.644;2023-11-19T02:46:04;33.85;;;19.67;;
52768;SDS011;40471;44.534;18.644;2023-11-19T02:48:34;49.40;;;24.58;;
52768;SDS011;40471;44.534;18.644;2023-11-19T03:07:54;41.83;;;26.20;;
52768;SDS011;40471;44.534;18.644;2023-11-19T03:10:20;40.22;;;23.27;;
52768;SDS011;40471;44.534;18.644;2023-11-19T03:12:45;37.63;;;20.27;;
52768;SDS011;40471;44.534;18.644;2023-11-19T03:15:11;24.83;;;16.65;;
52768;SDS011;40471;44.534;18.644;2023-11-19T03:17:40;32.72;;;17.73;;
52768;SDS011;40471;44.534;18.644;2023-11-19T03:20:12;33.85;;;18.77;;
52768;SDS011;40471;44.534;18.644;2023-11-19T03:22:42;44.67;;;21.67;;
52768;SDS011;40471;44.534;18.644;2023-11-19T03:25:08;34.40;;;20.35;;
52768;SDS011;40471;44.534;18.644;2023-11-19T03:27:34;20.67;;;13.65;;
52768;SDS011;40471;44.534;18.644;2023-11-19T03:46:54;24.63;;;14.32;;
52768;SDS011;40471;44.534;18.644;2023-11-19T03:49:20;21.55;;;14.57;;
52768;SDS011;40471;44.534;18.644;2023-11-19T03:51:45;20.35;;;11.93;;
52768;SDS011;40471;44.534;18.644;2023-11-19T03:54:12;25.40;;;14.03;;
52768;SDS011;40471;44.534;18.644;2023-11-19T03:56:37;20.75;;;13.70;;
52768;SDS011;40471;44.534;18.644;2023-11-19T03:59:03;29.45;;;13.30;;
52768;SDS011;40471;44.534;18.644;2023-11-19T04:01:29;19.25;;;13.15;;
52768;SDS011;40471;44.534;18.644;2023-11-19T04:03:54;27.13;;;14.20;;
52768;SDS011;40471;44.534;18.644;2023-11-19T04:23:12;14.30;;;10.43;;
52768;SDS011;40471;44.534;18.644;2023-11-19T04:25:38;8.85;;;5.85;;
52768;SDS011;40471;44.534;18.644;2023-11-19T04:28:04;9.82;;;7.35;;
52768;SDS011;40471;44.534;18.644;2023-11-19T04:30:29;18.50;;;12.40;;
52768;SDS011;40471;44.534;18.644;2023-11-19T04:32:57;19.45;;;11.80;;
52768;SDS011;40471;44.534;18.644;2023-11-19T04:35:23;31.37;;;18.53;;
52768;SDS011;40471;44.534;18.644;2023-11-19T04:37:48;32.75;;;20.25;;
52768;SDS011;40471;44.534;18.644;2023-11-19T04:40:14;37.42;;;23.25;;
52768;SDS011;40471;44.534;18.644;2023-11-19T04:42:40;31.02;;;17.15;;
52768;SDS011;40471;44.534;18.644;2023-11-19T05:01:55;17.20;;;11.95;;
52768;SDS011;40471;44.534;18.644;2023-11-19T05:04:21;37.60;;;20.27;;
52768;SDS011;40471;44.534;18.644;2023-11-19T05:06:47;34.95;;;17.55;;
52768;SDS011;40471;44.534;18.644;2023-11-19T05:09:12;30.52;;;16.58;;
52768;SDS011;40471;44.534;18.644;2023-11-19T05:11:38;34.47;;;20.33;;
52768;SDS011;40471;44.534;18.644;2023-11-19T05:14:05;34.67;;;21.25;;
52768;SDS011;40471;44.534;18.644;2023-11-19T05:16:31;30.70;;;17.65;;
52768;SDS011;40471;44.534;18.644;2023-11-19T05:18:58;14.88;;;10.57;;
52768;SDS011;40471;44.534;18.644;2023-11-19T05:21:23;25.15;;;12.23;;
52768;SDS011;40471;44.534;18.644;2023-11-19T05:40:41;30.15;;;14.88;;
52768;SDS011;40471;44.534;18.644;2023-11-19T05:43:07;33.92;;;15.75;;
52768;SDS011;40471;44.534;18.644;2023-11-19T05:45:33;20.80;;;11.52;;
52768;SDS011;40471;44.534;18.644;2023-11-19T05:47:58;19.57;;;12.20;;
52768;SDS011;40471;44.534;18.644;2023-11-19T05:50:24;23.00;;;16.33;;
52768;SDS011;40471;44.534;18.644;2023-11-19T05:52:50;20.58;;;11.73;;
52768;SDS011;40471;44.534;18.644;2023-11-19T05:55:18;22.05;;;15.77;;
52768;SDS011;40471;44.534;18.644;2023-11-19T05:57:44;20.50;;;11.15;;
52768;SDS011;40471;44.534;18.644;2023-11-19T06:17:01;40.63;;;16.40;;
52768;SDS011;40471;44.534;18.644;2023-11-19T06:19:26;34.13;;;18.38;;
52768;SDS011;40471;44.534;18.644;2023-11-19T06:21:53;28.45;;;17.75;;
52768;SDS011;40471;44.534;18.644;2023-11-19T06:24:19;66.70;;;25.45;;
52768;SDS011;40471;44.534;18.644;2023-11-19T06:26:44;36.80;;;21.23;;
52768;SDS011;40471;44.534;18.644;2023-11-19T06:29:10;26.92;;;16.10;;
52768;SDS011;40471;44.534;18.644;2023-11-19T06:31:36;29.02;;;13.98;;
52768;SDS011;40471;44.534;18.644;2023-11-19T06:34:02;24.60;;;14.40;;
52768;SDS011;40471;44.534;18.644;2023-11-19T06:36:28;27.48;;;16.25;;
52768;SDS011;40471;44.534;18.644;2023-11-19T06:38:54;20.58;;;14.73;;
52768;SDS011;40471;44.534;18.644;2023-11-19T06:41:20;27.25;;;17.25;;
52768;SDS011;40471;44.534;18.644;2023-11-19T06:43:49;24.17;;;14.67;;
52768;SDS011;40471;44.534;18.644;2023-11-19T06:46:15;22.05;;;13.50;;
52768;SDS011;40471;44.534;18.644;2023-11-19T06:48:41;19.75;;;13.80;;
52768;SDS011;40471;44.534;18.644;2023-11-19T06:51:09;22.38;;;10.90;;
52768;SDS011;40471;44.534;18.644;2023-11-19T06:53:35;15.82;;;8.60;;
52768;SDS011;40471;44.534;18.644;2023-11-19T06:56:01;20.48;;;12.30;;
52768;SDS011;40471;44.534;18.644;2023-11-19T06:58:31;22.38;;;11.98;;
52768;SDS011;40471;44.534;18.644;2023-11-19T07:00:59;14.43;;;8.98;;
52768;SDS011;40471;44.534;18.644;2023-11-19T07:03:27;19.98;;;14.73;;
52768;SDS011;40471;44.534;18.644;2023-11-19T07:05:53;39.35;;;17.65;;
52768;SDS011;40471;44.534;18.644;2023-11-19T07:08:20;36.88;;;18.08;;
52768;SDS011;40471;44.534;18.644;2023-11-19T07:10:46;26.08;;;16.27;;
52768;SDS011;40471;44.534;18.644;2023-11-19T07:13:12;28.85;;;14.38;;
52768;SDS011;40471;44.534;18.644;2023-11-19T07:15:42;15.85;;;11.15;;
52768;SDS011;40471;44.534;18.644;2023-11-19T07:18:07;17.50;;;9.55;;
52768;SDS011;40471;44.534;18.644;2023-11-19T07:20:33;24.50;;;11.07;;
52768;SDS011;40471;44.534;18.644;2023-11-19T07:22:59;29.70;;;9.75;;
52768;SDS011;40471;44.534;18.644;2023-11-19T07:25:25;16.48;;;10.73;;
52768;SDS011;40471;44.534;18.644;2023-11-19T07:27:51;21.08;;;10.52;;
52768;SDS011;40471;44.534;18.644;2023-11-19T07:30:17;18.05;;;9.95;;
52768;SDS011;40471;44.534;18.644;2023-11-19T07:32:43;31.47;;;11.20;;
52768;SDS011;40471;44.534;18.644;2023-11-19T07:35:09;18.40;;;11.37;;
52768;SDS011;40471;44.534;18.644;2023-11-19T07:37:35;14.38;;;11.25;;
52768;SDS011;40471;44.534;18.644;2023-11-19T07:40:00;16.77;;;10.20;;
52768;SDS011;40471;44.534;18.644;2023-11-19T07:42:26;23.83;;;12.82;;
52768;SDS011;40471;44.534;18.644;2023-11-19T07:44:52;20.13;;;13.32;;
52768;SDS011;40471;44.534;18.644;2023-11-19T07:47:20;14.88;;;10.60;;
52768;SDS011;40471;44.534;18.644;2023-11-19T07:49:48;26.05;;;14.32;;
52768;SDS011;40471;44.534;18.644;2023-11-19T07:52:15;25.90;;;16.35;;
52768;SDS011;40471;44.534;18.644;2023-11-19T07:54:41;19.97;;;10.73;;
52768;SDS011;40471;44.534;18.644;2023-11-19T07:59:51;22.67;;;15.85;;
52768;SDS011;40471;44.534;18.644;2023-11-19T08:02:17;21.58;;;12.95;;
52768;SDS011;40471;44.534;18.644;2023-11-19T08:04:43;20.73;;;13.20;;
52768;SDS011;40471;44.534;18.644;2023-11-19T08:07:10;21.58;;;12.60;;
52768;SDS011;40471;44.534;18.644;2023-11-19T08:09:36;26.13;;;14.70;;
52768;SDS011;40471;44.534;18.644;2023-11-19T08:12:03;15.57;;;9.82;;
52768;SDS011;40471;44.534;18.644;2023-11-19T08:14:29;18.95;;;11.93;;
52768;SDS011;40471;44.534;18.644;2023-11-19T08:16:55;28.08;;;13.60;;
52768;SDS011;40471;44.534;18.644;2023-11-19T08:19:22;30.63;;;15.45;;
52768;SDS011;40471;44.534;18.644;2023-11-19T08:21:48;38.65;;;29.55;;
52768;SDS011;40471;44.534;18.644;2023-11-19T08:24:14;34.03;;;23.50;;
52768;SDS011;40471;44.534;18.644;2023-11-19T08:26:40;16.52;;;9.52;;
52768;SDS011;40471;44.534;18.644;2023-11-19T08:29:09;12.63;;;9.07;;
52768;SDS011;40471;44.534;18.644;2023-11-19T08:31:35;12.85;;;7.93;;
52768;SDS011;40471;44.534;18.644;2023-11-19T08:34:01;13.00;;;10.53;;
52768;SDS011;40471;44.534;18.644;2023-11-19T08:36:28;12.52;;;9.13;;
52768;SDS011;40471;44.534;18.644;2023-11-19T08:38:54;39.53;;;31.10;;
52768;SDS011;40471;44.534;18.644;2023-11-19T08:41:21;13.47;;;9.87;;
52768;SDS011;40471;44.534;18.644;2023-11-19T08:43:47;30.20;;;16.60;;
52768;SDS011;40471;44.534;18.644;2023-11-19T08:46:12;49.27;;;30.80;;
52768;SDS011;40471;44.534;18.644;2023-11-19T08:48:38;24.13;;;13.03;;
52768;SDS011;40471;44.534;18.644;2023-11-19T08:51:04;24.93;;;14.63;;
52768;SDS011;40471;44.534;18.644;2023-11-19T08:55:57;33.05;;;23.30;;
52768;SDS011;40471;44.534;18.644;2023-11-19T08:58:23;38.45;;;24.52;;
52768;SDS011;40471;44.534;18.644;2023-11-19T09:00:49;61.80;;;30.33;;
52768;SDS011;40471;44.534;18.644;2023-11-19T09:03:15;18.90;;;12.87;;
52768;SDS011;40471;44.534;18.644;2023-11-19T09:05:41;27.80;;;15.80;;
52768;SDS011;40471;44.534;18.644;2023-11-19T09:08:07;26.03;;;19.27;;
52768;SDS011;40471;44.534;18.644;2023-11-19T09:10:33;27.17;;;15.40;;
52768;SDS011;40471;44.534;18.644;2023-11-19T09:12:59;27.43;;;17.93;;
52768;SDS011;40471;44.534;18.644;2023-11-19T09:15:25;34.93;;;18.47;;
52768;SDS011;40471;44.534;18.644;2023-11-19T09:17:51;34.13;;;17.60;;
52768;SDS011;40471;44.534;18.644;2023-11-19T09:20:16;29.20;;;18.60;;
52768;SDS011;40471;44.534;18.644;2023-11-19T09:22:42;33.57;;;20.77;;
52768;SDS011;40471;44.534;18.644;2023-11-19T09:25:08;28.83;;;18.27;;
52768;SDS011;40471;44.534;18.644;2023-11-19T09:27:34;43.10;;;22.47;;
52768;SDS011;40471;44.534;18.644;2023-11-19T09:30:00;33.00;;;18.17;;
52768;SDS011;40471;44.534;18.644;2023-11-19T09:32:26;30.83;;;18.20;;
52768;SDS011;40471;44.534;18.644;2023-11-19T09:34:52;39.33;;;19.53;;
52768;SDS011;40471;44.534;18.644;2023-11-19T09:37:18;23.87;;;16.90;;
52768;SDS011;40471;44.534;18.644;2023-11-19T09:39:43;36.37;;;17.83;;
52768;SDS011;40471;44.534;18.644;2023-11-19T09:42:09;23.80;;;14.17;;
52768;SDS011;40471;44.534;18.644;2023-11-19T09:44:37;30.97;;;19.03;;
52768;SDS011;40471;44.534;18.644;2023-11-19T09:47:06;42.13;;;20.60;;
52768;SDS011;40471;44.534;18.644;2023-11-19T09:49:37;28.70;;;19.15;;
52768;SDS011;40471;44.534;18.644;2023-11-19T09:57:26;20.58;;;14.15;;
52768;SDS011;40471;44.534;18.644;2023-11-19T09:59:56;26.42;;;14.85;;
52768;SDS011;40471;44.534;18.644;2023-11-19T10:02:23;20.50;;;12.40;;
52768;SDS011;40471;44.534;18.644;2023-11-19T10:04:49;23.08;;;12.30;;
52768;SDS011;40471;44.534;18.644;2023-11-19T10:07:16;16.58;;;11.15;;
52768;SDS011;40471;44.534;18.644;2023-11-19T10:09:41;18.87;;;11.70;;
52768;SDS011;40471;44.534;18.644;2023-11-19T10:14:34;18.80;;;11.63;;
52768;SDS011;40471;44.534;18.644;2023-11-19T10:17:03;17.52;;;12.73;;
52768;SDS011;40471;44.534;18.644;2023-11-19T10:19:29;23.98;;;13.63;;
52768;SDS011;40471;44.534;18.644;2023-11-19T10:21:56;21.25;;;13.75;;
52768;SDS011;40471;44.534;18.644;2023-11-19T10:24:33;21.83;;;17.25;;
52768;SDS011;40471;44.534;18.644;2023-11-19T10:27:02;22.60;;;13.75;;
52768;SDS011;40471;44.534;18.644;2023-11-19T10:29:35;26.20;;;15.85;;
52768;SDS011;40471;44.534;18.644;2023-11-19T10:32:02;28.25;;;16.83;;
52768;SDS011;40471;44.534;18.644;2023-11-19T10:34:29;29.17;;;18.40;;
52768;SDS011;40471;44.534;18.644;2023-11-19T10:36:55;24.23;;;14.80;;
52768;SDS011;40471;44.534;18.644;2023-11-19T10:39:21;32.05;;;20.42;;
52768;SDS011;40471;44.534;18.644;2023-11-19T10:41:48;34.85;;;17.77;;
52768;SDS011;40471;44.534;18.644;2023-11-19T10:57:22;26.20;;;18.17;;
52768;SDS011;40471;44.534;18.644;2023-11-19T10:59:55;39.65;;;22.42;;
52768;SDS011;40471;44.534;18.644;2023-11-19T11:02:26;33.30;;;17.67;;
52768;SDS011;40471;44.534;18.644;2023-11-19T11:04:53;39.65;;;22.20;;
52768;SDS011;40471;44.534;18.644;2023-11-19T11:07:21;34.92;;;21.00;;
52768;SDS011;40471;44.534;18.644;2023-11-19T11:09:51;40.78;;;22.95;;
52768;SDS011;40471;44.534;18.644;2023-11-19T11:12:18;36.58;;;23.05;;
52768;SDS011;40471;44.534;18.644;2023-11-19T11:14:48;26.27;;;18.10;;
52768;SDS011;40471;44.534;18.644;2023-11-19T11:17:16;46.88;;;30.25;;
52768;SDS011;40471;44.534;18.644;2023-11-19T11:19:43;42.33;;;21.67;;
52768;SDS011;40471;44.534;18.644;2023-11-19T11:22:09;24.42;;;15.55;;
52768;SDS011;40471;44.534;18.644;2023-11-19T11:29:58;18.98;;;12.27;;
52768;SDS011;40471;44.534;18.644;2023-11-19T11:36:07;14.25;;;7.45;;
52768;SDS011;40471;44.534;18.644;2023-11-19T11:38:37;17.23;;;9.65;;
52768;SDS011;40471;44.534;18.644;2023-11-19T11:41:21;16.23;;;9.73;;
52768;SDS011;40471;44.534;18.644;2023-11-19T11:43:54;10.50;;;6.05;;
52768;SDS011;40471;44.534;18.644;2023-11-19T11:52:13;10.50;;;6.60;;
52768;SDS011;40471;44.534;18.644;2023-11-19T11:57:10;12.27;;;5.57;;
52768;SDS011;40471;44.534;18.644;2023-11-19T12:02:10;15.55;;;10.98;;
52768;SDS011;40471;44.534;18.644;2023-11-19T12:04:38;13.90;;;7.45;;
52768;SDS011;40471;44.534;18.644;2023-11-19T12:07:06;10.45;;;5.75;;
52768;SDS011;40471;44.534;18.644;2023-11-19T12:09:36;8.02;;;5.43;;
52768;SDS011;40471;44.534;18.644;2023-11-19T12:12:44;26.35;;;8.98;;
52768;SDS011;40471;44.534;18.644;2023-11-19T12:22:40;19.42;;;8.45;;
52768;SDS011;40471;44.534;18.644;2023-11-19T12:25:07;18.48;;;10.07;;
52768;SDS011;40471;44.534;18.644;2023-11-19T12:27:34;19.25;;;12.63;;
52768;SDS011;40471;44.534;18.644;2023-11-19T12:30:07;27.02;;;10.90;;
52768;SDS011;40471;44.534;18.644;2023-11-19T12:32:43;20.95;;;14.38;;
52768;SDS011;40471;44.534;18.644;2023-11-19T12:35:10;26.05;;;13.52;;
52768;SDS011;40471;44.534;18.644;2023-11-19T12:37:43;20.95;;;10.90;;
52768;SDS011;40471;44.534;18.644;2023-11-19T12:40:13;15.27;;;9.68;;
52768;SDS011;40471;44.534;18.644;2023-11-19T12:42:46;14.32;;;8.63;;
52768;SDS011;40471;44.534;18.644;2023-11-19T12:45:12;17.00;;;8.48;;
52768;SDS011;40471;44.534;18.644;2023-11-19T12:47:44;16.80;;;7.13;;
52768;SDS011;40471;44.534;18.644;2023-11-19T12:50:13;21.08;;;8.52;;
52768;SDS011;40471;44.534;18.644;2023-11-19T12:52:39;16.95;;;8.55;;
52768;SDS011;40471;44.534;18.644;2023-11-19T12:55:05;22.10;;;9.80;;
52768;SDS011;40471;44.534;18.644;2023-11-19T12:57:52;13.43;;;8.02;;
52768;SDS011;40471;44.534;18.644;2023-11-19T13:00:20;13.57;;;8.50;;
52768;SDS011;40471;44.534;18.644;2023-11-19T13:02:50;19.77;;;10.27;;
52768;SDS011;40471;44.534;18.644;2023-11-19T13:08:03;23.27;;;13.88;;
52768;SDS011;40471;44.534;18.644;2023-11-19T13:10:34;19.60;;;12.27;;
52768;SDS011;40471;44.534;18.644;2023-11-19T13:13:18;29.38;;;18.05;;
52768;SDS011;40471;44.534;18.644;2023-11-19T13:15:44;32.40;;;19.27;;
52768;SDS011;40471;44.534;18.644;2023-11-19T13:18:11;30.30;;;20.35;;
52768;SDS011;40471;44.534;18.644;2023-11-19T13:20:39;34.40;;;22.98;;
52768;SDS011;40471;44.534;18.644;2023-11-19T13:23:05;33.58;;;18.25;;
52768;SDS011;40471;44.534;18.644;2023-11-19T13:25:35;26.02;;;15.27;;
52768;SDS011;40471;44.534;18.644;2023-11-19T13:30:27;35.05;;;20.10;;
52768;SDS011;40471;44.534;18.644;2023-11-19T13:32:54;50.92;;;23.48;;
52768;SDS011;40471;44.534;18.644;2023-11-19T13:35:21;36.90;;;23.65;;
52768;SDS011;40471;44.534;18.644;2023-11-19T13:37:52;44.78;;;24.90;;
52768;SDS011;40471;44.534;18.644;2023-11-19T13:40:19;41.28;;;24.48;;
52768;SDS011;40471;44.534;18.644;2023-11-19T13:42:44;40.30;;;25.55;;
52768;SDS011;40471;44.534;18.644;2023-11-19T13:45:11;43.33;;;27.50;;
52768;SDS011;40471;44.534;18.644;2023-11-19T13:47:38;58.40;;;31.00;;
52768;SDS011;40471;44.534;18.644;2023-11-19T13:50:09;63.45;;;36.47;;
52768;SDS011;40471;44.534;18.644;2023-11-19T13:52:39;54.75;;;30.98;;
52768;SDS011;40471;44.534;18.644;2023-11-19T13:55:09;44.28;;;28.23;;
52768;SDS011;40471;44.534;18.644;2023-11-19T13:57:39;36.60;;;27.20;;
52768;SDS011;40471;44.534;18.644;2023-11-19T14:00:06;42.28;;;27.92;;
52768;SDS011;40471;44.534;18.644;2023-11-19T14:02:38;57.70;;;25.15;;
52768;SDS011;40471;44.534;18.644;2023-11-19T14:05:05;65.82;;;30.77;;
52768;SDS011;40471;44.534;18.644;2023-11-19T14:07:32;46.33;;;29.33;;
52768;SDS011;40471;44.534;18.644;2023-11-19T14:09:58;52.60;;;33.03;;
52768;SDS011;40471;44.534;18.644;2023-11-19T14:12:24;54.22;;;33.22;;
52768;SDS011;40471;44.534;18.644;2023-11-19T14:14:50;51.33;;;34.60;;
52768;SDS011;40471;44.534;18.644;2023-11-19T14:17:16;45.25;;;30.27;;
52768;SDS011;40471;44.534;18.644;2023-11-19T14:19:43;48.42;;;31.45;;
52768;SDS011;40471;44.534;18.644;2023-11-19T14:22:09;49.83;;;26.73;;
52768;SDS011;40471;44.534;18.644;2023-11-19T14:24:36;50.22;;;24.20;;
52768;SDS011;40471;44.534;18.644;2023-11-19T14:27:02;39.70;;;24.92;;
52768;SDS011;40471;44.534;18.644;2023-11-19T14:29:28;33.35;;;25.90;;
52768;SDS011;40471;44.534;18.644;2023-11-19T14:31:55;49.47;;;28.98;;
52768;SDS011;40471;44.534;18.644;2023-11-19T14:34:22;53.35;;;30.02;;
52768;SDS011;40471;44.534;18.644;2023-11-19T14:36:47;39.50;;;28.42;;
52768;SDS011;40471;44.534;18.644;2023-11-19T14:39:14;67.20;;;29.67;;
52768;SDS011;40471;44.534;18.644;2023-11-19T14:41:40;61.92;;;29.25;;
52768;SDS011;40471;44.534;18.644;2023-11-19T14:44:07;46.00;;;28.55;;
52768;SDS011;40471;44.534;18.644;2023-11-19T14:46:34;44.92;;;26.00;;
52768;SDS011;40471;44.534;18.644;2023-11-19T14:49:00;40.30;;;25.65;;
52768;SDS011;40471;44.534;18.644;2023-11-19T14:51:26;45.67;;;25.27;;
52768;SDS011;40471;44.534;18.644;2023-11-19T14:53:52;60.53;;;38.53;;
52768;SDS011;40471;44.534;18.644;2023-11-19T14:56:18;154.17;;;101.60;;
52768;SDS011;40471;44.534;18.644;2023-11-19T14:58:43;230.47;;;150.87;;
52768;SDS011;40471;44.534;18.644;2023-11-19T15:01:13;248.10;;;160.50;;
52768;SDS011;40471;44.534;18.644;2023-11-19T15:03:39;285.20;;;183.23;;
52768;SDS011;40471;44.534;18.644;2023-11-19T15:06:05;262.33;;;179.95;;
52768;SDS011;40471;44.534;18.644;2023-11-19T15:10:57;245.52;;;173.18;;
52768;SDS011;40471;44.534;18.644;2023-11-19T15:13:24;291.73;;;191.50;;
52768;SDS011;40471;44.534;18.644;2023-11-19T15:15:50;306.43;;;207.47;;
52768;SDS011;40471;44.534;18.644;2023-11-19T15:18:18;295.58;;;190.18;;
52768;SDS011;40471;44.534;18.644;2023-11-19T15:20:44;285.67;;;179.95;;
52768;SDS011;40471;44.534;18.644;2023-11-19T15:23:12;329.73;;;215.35;;
52768;SDS011;40471;44.534;18.644;2023-11-19T15:28:35;342.88;;;228.15;;
52768;SDS011;40471;44.534;18.644;2023-11-19T15:31:01;330.27;;;221.00;;
52768;SDS011;40471;44.534;18.644;2023-11-19T15:33:27;350.55;;;236.32;;
52768;SDS011;40471;44.534;18.644;2023-11-19T15:35:53;278.70;;;195.53;;
52768;SDS011;40471;44.534;18.644;2023-11-19T15:38:19;300.30;;;197.17;;
52768;SDS011;40471;44.534;18.644;2023-11-19T15:40:45;271.73;;;186.18;;
52768;SDS011;40471;44.534;18.644;2023-11-19T15:43:11;217.77;;;155.33;;
52768;SDS011;40471;44.534;18.644;2023-11-19T15:45:36;518.93;;;390.03;;
52768;SDS011;40471;44.534;18.644;2023-11-19T15:48:04;476.52;;;368.88;;
52768;SDS011;40471;44.534;18.644;2023-11-19T15:50:31;438.65;;;315.88;;
52768;SDS011;40471;44.534;18.644;2023-11-19T15:52:57;346.30;;;222.57;;
52768;SDS011;40471;44.534;18.644;2023-11-19T15:55:24;242.27;;;158.07;;
52768;SDS011;40471;44.534;18.644;2023-11-19T15:57:50;232.97;;;149.33;;
52768;SDS011;40471;44.534;18.644;2023-11-19T16:00:16;205.68;;;137.07;;
52768;SDS011;40471;44.534;18.644;2023-11-19T16:02:42;191.90;;;127.43;;
52768;SDS011;40471;44.534;18.644;2023-11-19T16:05:08;210.40;;;135.70;;
52768;SDS011;40471;44.534;18.644;2023-11-19T16:07:34;221.97;;;146.77;;
52768;SDS011;40471;44.534;18.644;2023-11-19T16:10:01;225.02;;;149.32;;
52768;SDS011;40471;44.534;18.644;2023-11-19T16:12:29;222.35;;;149.52;;
52768;SDS011;40471;44.534;18.644;2023-11-19T16:14:55;228.70;;;144.47;;
52768;SDS011;40471;44.534;18.644;2023-11-19T16:17:21;227.80;;;143.70;;
52768;SDS011;40471;44.534;18.644;2023-11-19T16:19:48;223.35;;;151.23;;
52768;SDS011;40471;44.534;18.644;2023-11-19T16:22:14;251.37;;;168.30;;
52768;SDS011;40471;44.534;18.644;2023-11-19T16:24:40;291.50;;;187.83;;
52768;SDS011;40471;44.534;18.644;2023-11-19T16:27:06;255.85;;;163.60;;
52768;SDS011;40471;44.534;18.644;2023-11-19T16:29:33;254.93;;;166.55;;
52768;SDS011;40471;44.534;18.644;2023-11-19T16:31:58;254.20;;;159.43;;
52768;SDS011;40471;44.534;18.644;2023-11-19T16:34:24;242.47;;;150.80;;
52768;SDS011;40471;44.534;18.644;2023-11-19T16:36:50;260.83;;;154.90;;
52768;SDS011;40471;44.534;18.644;2023-11-19T16:39:16;329.63;;;218.77;;
52768;SDS011;40471;44.534;18.644;2023-11-19T16:41:41;217.53;;;131.50;;
52768;SDS011;40471;44.534;18.644;2023-11-19T16:44:07;180.00;;;119.77;;
52768;SDS011;40471;44.534;18.644;2023-11-19T16:46:33;162.35;;;111.70;;
52768;SDS011;40471;44.534;18.644;2023-11-19T16:48:59;183.63;;;124.23;;
52768;SDS011;40471;44.534;18.644;2023-11-19T16:51:25;176.70;;;116.27;;
52768;SDS011;40471;44.534;18.644;2023-11-19T16:53:51;181.17;;;122.10;;
52768;SDS011;40471;44.534;18.644;2023-11-19T16:56:17;193.80;;;119.82;;
52768;SDS011;40471;44.534;18.644;2023-11-19T16:58:45;224.80;;;146.93;;
52768;SDS011;40471;44.534;18.644;2023-11-19T17:01:11;263.67;;;166.40;;
52768;SDS011;40471;44.534;18.644;2023-11-19T17:03:39;207.27;;;128.02;;
52768;SDS011;40471;44.534;18.644;2023-11-19T17:06:08;213.93;;;129.93;;
52768;SDS011;40471;44.534;18.644;2023-11-19T17:08:34;264.10;;;160.05;;
52768;SDS011;40471;44.534;18.644;2023-11-19T17:11:03;275.05;;;184.27;;
52768;SDS011;40471;44.534;18.644;2023-11-19T17:13:33;252.60;;;157.70;;
52768;SDS011;40471;44.534;18.644;2023-11-19T17:15:59;211.52;;;134.50;;
52768;SDS011;40471;44.534;18.644;2023-11-19T17:18:25;249.50;;;152.13;;
52768;SDS011;40471;44.534;18.644;2023-11-19T17:20:51;241.03;;;146.93;;
52768;SDS011;40471;44.534;18.644;2023-11-19T17:23:21;242.35;;;143.63;;
52768;SDS011;40471;44.534;18.644;2023-11-19T17:25:47;243.20;;;152.67;;
52768;SDS011;40471;44.534;18.644;2023-11-19T17:28:13;248.20;;;150.07;;
52768;SDS011;40471;44.534;18.644;2023-11-19T17:30:38;250.13;;;160.23;;
52768;SDS011;40471;44.534;18.644;2023-11-19T17:33:05;283.38;;;177.60;;
52768;SDS011;40471;44.534;18.644;2023-11-19T17:35:33;270.07;;;161.50;;
52768;SDS011;40471;44.534;18.644;2023-11-19T17:37:59;285.08;;;172.07;;
52768;SDS011;40471;44.534;18.644;2023-11-19T17:40:25;327.10;;;198.38;;
52768;SDS011;40471;44.534;18.644;2023-11-19T17:42:52;313.98;;;185.48;;
52768;SDS011;40471;44.534;18.644;2023-11-19T17:45:18;316.10;;;183.18;;
52768;SDS011;40471;44.534;18.644;2023-11-19T17:47:44;275.90;;;164.97;;
52768;SDS011;40471;44.534;18.644;2023-11-19T17:50:10;266.87;;;158.93;;
52768;SDS011;40471;44.534;18.644;2023-11-19T17:52:36;291.97;;;172.70;;
52768;SDS011;40471;44.534;18.644;2023-11-19T17:57:29;357.27;;;213.43;;
52768;SDS011;40471;44.534;18.644;2023-11-19T18:02:22;331.17;;;199.38;;